Time;durP1;ratioP1;P1;durP2;ratioP2;P2;SDS_P1;SDS_P2;PMS_P1;PMS_P2;Temp;Humidity;BMP_temperature;BMP_pressure;BME280_temperature;BME280_humidity;BME280_pressure;Samples;Min_cycle;Max_cycle;Signal;HPM_P1;HPM_P2
2024/01/04 01:44:46;;;;;;;2.13;0.93;;;;;;;;;;6271948;22;20455;-84
2024/01/04 01:47:42;;;;;;;4.63;1.35;;;;;;;;;;6296571;22;20023;-84
2024/01/04 01:50:11;;;;;;;1.50;0.70;;;;;;;;;;6269087;22;20015;-83
2024/01/04 01:53:02;;;;;;;7.35;0.98;;;;;;;;;;6274785;22;20022;-84
2024/01/04 01:55:59;;;;;;;2.45;0.80;;;;;;;;;;6271058;22;20011;-83
2024/01/04 01:58:39;;;;;;;3.35;0.80;;;;;;;;;;6262626;22;20049;-84
2024/01/04 02:01:53;;;;;;;;;;;;;;;;;;;;;
2024/01/04 02:09:09;;;;;;;;;;;;;;;;;;;;;
2024/01/04 03:05:29;;;;;;;6.43;1.02;;;;;;;;;;6264713;22;20011;-91
2024/01/04 03:07:55;;;;;;;0.95;0.70;;;;;;;;;;6277457;22;20046;-91
2024/01/04 03:10:21;;;;;;;5.70;1.05;;;;;;;;;;6246572;22;20022;-92
2024/01/04 03:12:47;;;;;;;2.10;0.80;;;;;;;;;;6249273;22;20076;-91
2024/01/04 03:15:13;;;;;;;2.08;0.70;;;;;;;;;;6271191;22;20019;-92
2024/01/04 03:17:39;;;;;;;2.47;0.57;;;;;;;;;;6265031;22;20015;-92
2024/01/04 03:20:06;;;;;;;1.20;0.65;;;;;;;;;;6216051;22;20023;-92
2024/01/04 03:22:32;;;;;;;1.85;0.60;;;;;;;;;;6219100;22;20027;-91
2024/01/04 03:24:58;;;;;;;2.30;0.60;;;;;;;;;;6216790;22;20011;-92
2024/01/04 03:27:24;;;;;;;0.60;0.60;;;;;;;;;;6217838;22;20021;-91
2024/01/04 03:29:52;;;;;;;1.73;0.52;;;;;;;;;;6243514;22;20075;-92
2024/01/04 03:32:18;;;;;;;1.20;0.80;;;;;;;;;;6242880;22;21026;-92
2024/01/04 03:34:44;;;;;;;2.65;0.75;;;;;;;;;;6217211;22;20122;-92
2024/01/04 03:37:10;;;;;;;1.65;0.57;;;;;;;;;;6240992;22;20015;-92
2024/01/04 03:39:36;;;;;;;2.13;0.60;;;;;;;;;;6244303;22;20023;-92
2024/01/04 03:42:02;;;;;;;1.05;0.65;;;;;;;;;;6241831;22;20820;-91
2024/01/04 03:44:28;;;;;;;2.58;0.60;;;;;;;;;;6217605;22;20038;-92
2024/01/04 03:46:54;;;;;;;3.95;0.70;;;;;;;;;;6217983;22;20042;-91
2024/01/04 03:49:20;;;;;;;0.70;0.50;;;;;;;;;;6215314;22;20162;-91
2024/01/04 03:51:46;;;;;;;3.92;0.80;;;;;;;;;;6244017;22;20019;-91
2024/01/04 03:54:12;;;;;;;1.75;0.70;;;;;;;;;;6240375;22;20015;-92
2024/01/04 03:56:38;;;;;;;1.20;0.60;;;;;;;;;;6242988;22;20623;-92
2024/01/04 03:59:04;;;;;;;2.97;0.82;;;;;;;;;;6240958;22;20140;-91
2024/01/04 04:01:30;;;;;;;1.88;0.60;;;;;;;;;;6244686;22;20050;-91
2024/01/04 04:03:57;;;;;;;0.60;0.55;;;;;;;;;;6217624;22;20015;-92
2024/01/04 04:06:23;;;;;;;1.52;0.60;;;;;;;;;;6217434;22;20016;-91
2024/01/04 04:08:49;;;;;;;2.42;0.73;;;;;;;;;;6218601;22;20019;-92
2024/01/04 04:11:18;;;;;;;2.42;0.70;;;;;;;;;;6217917;22;20049;-92
2024/01/04 04:13:44;;;;;;;2.05;0.50;;;;;;;;;;6217625;22;20023;-92
2024/01/04 04:16:10;;;;;;;2.58;0.70;;;;;;;;;;6214956;22;20332;-92
2024/01/04 04:18:36;;;;;;;1.42;0.60;;;;;;;;;;6217947;22;20325;-90
2024/01/04 04:21:02;;;;;;;3.10;0.90;;;;;;;;;;6215967;22;20577;-91
2024/01/04 04:23:28;;;;;;;2.17;0.65;;;;;;;;;;6217046;22;20015;-91
2024/01/04 04:25:55;;;;;;;2.80;0.60;;;;;;;;;;6244176;22;20043;-91
2024/01/04 04:28:21;;;;;;;1.45;0.70;;;;;;;;;;6216707;22;20103;-91
2024/01/04 04:30:47;;;;;;;4.30;0.73;;;;;;;;;;6218687;22;20015;-91
2024/01/04 04:33:13;;;;;;;1.45;0.68;;;;;;;;;;6216681;22;20015;-91
2024/01/04 04:35:40;;;;;;;2.85;0.60;;;;;;;;;;6216281;22;20318;-91
2024/01/04 04:38:06;;;;;;;1.13;0.55;;;;;;;;;;6215976;22;20021;-91
2024/01/04 04:40:32;;;;;;;0.88;0.60;;;;;;;;;;6217714;22;20069;-92
2024/01/04 04:42:58;;;;;;;2.53;0.70;;;;;;;;;;6243233;22;20019;-92
2024/01/04 04:45:24;;;;;;;1.48;0.60;;;;;;;;;;6218224;22;20019;-89
2024/01/04 04:47:50;;;;;;;1.67;0.70;;;;;;;;;;6217779;22;20021;-92
2024/01/04 04:50:16;;;;;;;2.35;0.70;;;;;;;;;;6239115;22;20007;-92
2024/01/04 04:52:42;;;;;;;2.83;0.70;;;;;;;;;;6217814;22;20023;-92
2024/01/04 04:55:08;;;;;;;1.48;0.85;;;;;;;;;;6213855;22;20038;-91
2024/01/04 04:57:34;;;;;;;0.95;0.60;;;;;;;;;;6242908;22;20340;-91
2024/01/04 05:00:00;;;;;;;1.58;0.50;;;;;;;;;;6214482;22;20015;-91
2024/01/04 05:02:26;;;;;;;2.55;0.63;;;;;;;;;;6242324;22;20019;-92
2024/01/04 05:04:52;;;;;;;2.05;0.60;;;;;;;;;;6216387;22;20042;-91
2024/01/04 05:07:18;;;;;;;4.20;0.80;;;;;;;;;;6267938;22;20399;-91
2024/01/04 05:09:44;;;;;;;3.13;0.80;;;;;;;;;;6217338;22;20015;-92
2024/01/04 05:12:10;;;;;;;3.58;0.80;;;;;;;;;;6216106;22;20447;-91
2024/01/04 05:14:36;;;;;;;1.40;0.70;;;;;;;;;;6267232;22;20015;-91
2024/01/04 05:17:02;;;;;;;1.05;0.50;;;;;;;;;;6213390;22;20014;-92
2024/01/04 05:19:28;;;;;;;5.53;0.98;;;;;;;;;;6243837;22;20054;-92
2024/01/04 05:21:54;;;;;;;3.42;0.70;;;;;;;;;;6268877;22;20027;-92
2024/01/04 05:24:20;;;;;;;1.70;0.52;;;;;;;;;;6239715;22;20062;-91
2024/01/04 05:26:46;;;;;;;4.05;1.15;;;;;;;;;;6216635;22;20022;-92
2024/01/04 05:29:12;;;;;;;2.50;0.60;;;;;;;;;;6238838;22;20011;-92
2024/01/04 05:31:38;;;;;;;1.83;0.63;;;;;;;;;;6217254;22;20026;-91
2024/01/04 05:34:04;;;;;;;4.22;0.80;;;;;;;;;;6213995;22;20015;-92
2024/01/04 05:36:30;;;;;;;2.40;0.70;;;;;;;;;;6267546;22;20106;-92
2024/01/04 05:38:56;;;;;;;1.33;0.75;;;;;;;;;;6242971;22;20046;-92
2024/01/04 05:41:22;;;;;;;1.27;0.80;;;;;;;;;;6215517;22;20019;-90
2024/01/04 05:43:48;;;;;;;4.22;2.25;;;;;;;;;;6216667;22;20018;-91
2024/01/04 05:46:16;;;;;;;4.35;0.73;;;;;;;;;;6214733;22;20017;-91
2024/01/04 05:48:42;;;;;;;4.88;0.80;;;;;;;;;;6268481;22;20019;-90
2024/01/04 05:51:08;;;;;;;1.05;0.77;;;;;;;;;;6214654;22;20139;-90
2024/01/04 05:53:36;;;;;;;3.97;0.77;;;;;;;;;;6241101;22;20007;-91
2024/01/04 05:56:02;;;;;;;2.92;0.70;;;;;;;;;;6239267;22;20398;-92
2024/01/04 05:58:28;;;;;;;2.58;0.60;;;;;;;;;;6268017;22;20011;-91
2024/01/04 06:00:54;;;;;;;3.22;0.63;;;;;;;;;;6215543;22;20072;-92
2024/01/04 06:03:20;;;;;;;1.10;0.68;;;;;;;;;;6265176;22;20015;-92
2024/01/04 06:05:46;;;;;;;1.67;0.60;;;;;;;;;;6241522;22;20370;-91
2024/01/04 06:08:12;;;;;;;2.72;0.60;;;;;;;;;;6239344;22;20026;-91
2024/01/04 06:10:38;;;;;;;3.35;0.60;;;;;;;;;;6215811;22;20011;-91
2024/01/04 06:13:07;;;;;;;2.22;0.65;;;;;;;;;;6214819;22;20816;-91
2024/01/04 06:15:34;;;;;;;1.50;0.60;;;;;;;;;;6241849;22;20046;-91
2024/01/04 06:18:00;;;;;;;1.08;0.60;;;;;;;;;;6264893;22;20023;-91
2024/01/04 06:20:26;;;;;;;1.52;0.63;;;;;;;;;;6243392;22;20336;-90
2024/01/04 06:22:53;;;;;;;1.98;0.60;;;;;;;;;;6218617;22;20024;-92
2024/01/04 06:25:19;;;;;;;3.15;0.88;;;;;;;;;;6238855;22;20008;-91
2024/01/04 06:27:45;;;;;;;1.05;0.75;;;;;;;;;;6242695;22;20019;-91
2024/01/04 06:30:11;;;;;;;3.25;0.60;;;;;;;;;;6242075;22;20015;-91
2024/01/04 06:32:37;;;;;;;2.33;0.55;;;;;;;;;;6270328;22;20094;-91
2024/01/04 06:35:03;;;;;;;1.13;0.57;;;;;;;;;;6216410;22;20053;-91
2024/01/04 06:37:29;;;;;;;2.08;0.45;;;;;;;;;;6269689;22;20025;-91
2024/01/04 06:39:55;;;;;;;1.55;0.60;;;;;;;;;;6218436;22;20094;-91
2024/01/04 06:42:21;;;;;;;0.60;0.60;;;;;;;;;;6216902;22;20054;-91
2024/01/04 06:44:47;;;;;;;1.85;0.77;;;;;;;;;;6243069;22;20032;-90
2024/01/04 06:47:14;;;;;;;1.95;0.80;;;;;;;;;;6241340;22;20047;-91
2024/01/04 06:49:41;;;;;;;0.60;0.50;;;;;;;;;;6218841;22;20436;-91
2024/01/04 06:52:08;;;;;;;4.45;0.77;;;;;;;;;;6242042;22;20033;-91
2024/01/04 06:54:34;;;;;;;0.85;0.60;;;;;;;;;;6242983;22;20148;-92
2024/01/04 06:57:00;;;;;;;2.08;0.85;;;;;;;;;;6215082;22;20057;-91
2024/01/04 06:59:26;;;;;;;2.25;0.70;;;;;;;;;;6244473;22;20080;-91
2024/01/04 07:01:52;;;;;;;4.00;0.50;;;;;;;;;;6243470;22;20098;-92
2024/01/04 07:04:18;;;;;;;0.80;0.70;;;;;;;;;;6214723;22;20026;-91
2024/01/04 07:06:44;;;;;;;0.90;0.60;;;;;;;;;;6192283;23;20020;-92
2024/01/04 07:09:10;;;;;;;0.47;0.47;;;;;;;;;;6205185;23;20540;-91
2024/01/04 07:11:36;;;;;;;2.83;0.60;;;;;;;;;;6231454;23;20024;-90
2024/01/04 07:14:02;;;;;;;2.47;0.70;;;;;;;;;;6178446;23;20020;-91
2024/01/04 07:16:28;;;;;;;2.50;0.60;;;;;;;;;;6233135;23;20024;-92
2024/01/04 07:18:55;;;;;;;3.00;0.90;;;;;;;;;;6181820;23;20065;-91
2024/01/04 07:21:21;;;;;;;3.60;1.10;;;;;;;;;;6181290;23;20064;-91
2024/01/04 07:23:47;;;;;;;1.75;0.60;;;;;;;;;;6179570;23;20016;-91
2024/01/04 07:26:14;;;;;;;4.65;0.68;;;;;;;;;;6179137;23;20031;-91
2024/01/04 07:28:40;;;;;;;2.22;0.57;;;;;;;;;;6207769;23;20106;-91
2024/01/04 07:31:06;;;;;;;3.83;0.60;;;;;;;;;;6178903;23;20016;-91
2024/01/04 07:33:32;;;;;;;0.75;0.52;;;;;;;;;;6207137;23;20012;-92
2024/01/04 07:35:59;;;;;;;2.67;0.55;;;;;;;;;;6231285;23;20082;-92
2024/01/04 07:38:26;;;;;;;4.13;0.73;;;;;;;;;;6234235;22;20074;-91
2024/01/04 07:40:52;;;;;;;0.63;0.63;;;;;;;;;;6231325;23;20095;-91
2024/01/04 07:43:18;;;;;;;0.90;0.70;;;;;;;;;;6179975;23;20078;-91
2024/01/04 07:45:44;;;;;;;0.80;0.70;;;;;;;;;;6181507;23;20448;-92
2024/01/04 07:48:11;;;;;;;1.35;0.70;;;;;;;;;;6180185;23;20019;-91
2024/01/04 07:50:37;;;;;;;1.10;1.00;;;;;;;;;;6208627;23;20012;-91
2024/01/04 07:53:03;;;;;;;2.30;0.95;;;;;;;;;;6179810;23;20340;-91
2024/01/04 07:55:29;;;;;;;1.95;0.60;;;;;;;;;;6206359;23;20016;-90
2024/01/04 07:57:55;;;;;;;2.38;0.63;;;;;;;;;;6237995;22;20634;-91
2024/01/04 08:00:22;;;;;;;1.15;0.70;;;;;;;;;;6235867;22;20463;-92
2024/01/04 08:02:48;;;;;;;3.15;0.55;;;;;;;;;;6187345;22;20543;-91
2024/01/04 08:05:14;;;;;;;1.73;0.50;;;;;;;;;;6184992;22;20012;-91
2024/01/04 08:07:40;;;;;;;1.30;0.50;;;;;;;;;;6186721;22;20024;-90
2024/01/04 08:10:09;;;;;;;1.42;0.77;;;;;;;;;;6209463;22;20073;-92
2024/01/04 08:12:34;;;;;;;4.32;0.60;;;;;;;;;;6187288;22;20111;-91
2024/01/04 08:15:00;;;;;;;4.00;0.90;;;;;;;;;;6209712;22;20050;-91
2024/01/04 08:17:26;;;;;;;3.20;0.70;;;;;;;;;;6187775;22;20527;-92
2024/01/04 08:19:52;;;;;;;2.85;0.77;;;;;;;;;;6186969;22;20073;-92
2024/01/04 08:22:19;;;;;;;1.25;0.73;;;;;;;;;;6186603;22;20019;-91
2024/01/04 08:24:45;;;;;;;5.20;1.02;;;;;;;;;;6187552;22;20016;-93
2024/01/04 08:27:14;;;;;;;7.18;1.10;;;;;;;;;;6188081;22;20020;-94
2024/01/04 08:29:41;;;;;;;2.42;0.70;;;;;;;;;;6215852;22;20023;-93
2024/01/04 08:32:07;;;;;;;1.75;0.60;;;;;;;;;;6188357;22;20102;-92
2024/01/04 08:34:33;;;;;;;1.15;0.63;;;;;;;;;;6188055;22;20019;-92
2024/01/04 08:36:59;;;;;;;3.95;0.77;;;;;;;;;;6185550;22;20022;-92
2024/01/04 08:39:25;;;;;;;0.93;0.60;;;;;;;;;;6188159;22;20527;-91
2024/01/04 08:41:51;;;;;;;1.60;0.80;;;;;;;;;;6188786;22;20019;-92
2024/01/04 08:44:18;;;;;;;1.92;0.80;;;;;;;;;;6186018;22;20016;-91
2024/01/04 08:46:44;;;;;;;2.53;0.90;;;;;;;;;;6212745;22;20018;-91
2024/01/04 08:49:11;;;;;;;0.75;0.70;;;;;;;;;;6185073;22;20015;-92
2024/01/04 08:51:37;;;;;;;3.95;0.80;;;;;;;;;;6187170;22;20019;-91
2024/01/04 08:54:03;;;;;;;2.65;0.88;;;;;;;;;;6183729;22;20023;-92
2024/01/04 08:56:30;;;;;;;1.00;0.90;;;;;;;;;;6187892;22;20026;-92
2024/01/04 08:58:58;;;;;;;1.88;1.05;;;;;;;;;;6188442;22;20053;-93
2024/01/04 09:01:24;;;;;;;5.53;0.95;;;;;;;;;;6187823;22;20090;-92
2024/01/04 09:03:50;;;;;;;1.92;0.80;;;;;;;;;;6187839;22;20020;-91
2024/01/04 09:06:17;;;;;;;4.07;0.82;;;;;;;;;;6185480;22;20028;-92
2024/01/04 09:08:43;;;;;;;1.30;0.77;;;;;;;;;;6188018;22;20028;-91
2024/01/04 09:11:11;;;;;;;3.40;0.93;;;;;;;;;;6186327;22;20378;-92
2024/01/04 09:13:37;;;;;;;;;;;;;;;;;;6190921;22;20019;-91
2024/01/04 09:16:03;;;;;;;2.75;1.33;;;;;;;;;;6211314;22;20272;-91
2024/01/04 09:18:35;;;;;;;2.45;1.25;;;;;;;;;;6215244;22;20034;-92
2024/01/04 09:21:01;;;;;;;2.28;1.52;;;;;;;;;;6188087;22;20188;-92
2024/01/04 09:23:27;;;;;;;2.17;1.70;;;;;;;;;;6197747;22;20040;-92
2024/01/04 09:25:53;;;;;;;5.78;2.13;;;;;;;;;;6204439;22;20042;-91
2024/01/04 09:28:22;;;;;;;1.23;1.13;;;;;;;;;;6191215;22;20997;-92
2024/01/04 09:30:48;;;;;;;3.90;1.95;;;;;;;;;;6188017;22;20023;-92
2024/01/04 09:33:15;;;;;;;2.97;1.30;;;;;;;;;;6185191;22;20020;-93
2024/01/04 09:35:41;;;;;;;2.55;0.90;;;;;;;;;;6186684;22;20047;-91
2024/01/04 09:38:07;;;;;;;1.75;1.00;;;;;;;;;;6184999;22;20011;-91
2024/01/04 09:40:33;;;;;;;1.75;0.93;;;;;;;;;;6186514;22;20024;-91
2024/01/04 09:42:59;;;;;;;1.00;0.90;;;;;;;;;;6186043;22;20070;-91
2024/01/04 09:45:25;;;;;;;2.95;0.93;;;;;;;;;;6187986;22;20057;-92
2024/01/04 09:47:53;;;;;;;2.55;0.77;;;;;;;;;;6188858;22;20015;-92
2024/01/04 09:50:19;;;;;;;2.15;1.10;;;;;;;;;;6210768;22;20244;-92
2024/01/04 09:52:45;;;;;;;3.20;1.00;;;;;;;;;;6186436;22;20491;-92
2024/01/04 09:55:12;;;;;;;2.00;1.05;;;;;;;;;;6184562;22;20015;-92
2024/01/04 09:57:38;;;;;;;2.47;1.00;;;;;;;;;;6188577;22;20076;-92
2024/01/04 10:00:04;;;;;;;2.45;0.88;;;;;;;;;;6186682;22;20019;-92
2024/01/04 10:02:31;;;;;;;3.47;1.65;;;;;;;;;;6188770;22;20026;-91
2024/01/04 10:04:57;;;;;;;4.63;0.80;;;;;;;;;;6210364;22;20019;-93
2024/01/04 10:07:25;;;;;;;5.25;1.02;;;;;;;;;;6234692;22;20094;-92
2024/01/04 10:10:18;;;;;;;3.45;0.70;;;;;;;;;;6211348;22;20069;-91
2024/01/04 10:12:44;;;;;;;1.35;0.80;;;;;;;;;;6232813;22;20073;-91
2024/01/04 10:15:11;;;;;;;2.25;0.88;;;;;;;;;;6233436;22;20019;-93
2024/01/04 10:17:39;;;;;;;1.45;1.00;;;;;;;;;;6239311;22;20019;-93
2024/01/04 10:20:07;;;;;;;2.47;0.80;;;;;;;;;;6209993;22;20019;-93
2024/01/04 10:22:33;;;;;;;2.17;0.70;;;;;;;;;;6212902;22;20464;-92
2024/01/04 10:25:08;;;;;;;0.88;0.77;;;;;;;;;;6209073;22;20016;-91
2024/01/04 10:27:35;;;;;;;0.98;0.70;;;;;;;;;;6238143;22;20012;-91
2024/01/04 10:30:05;;;;;;;3.65;0.80;;;;;;;;;;6211626;22;20141;-92
2024/01/04 10:32:31;;;;;;;2.60;0.60;;;;;;;;;;6215911;22;20407;-92
2024/01/04 10:35:05;;;;;;;0.93;0.75;;;;;;;;;;6213675;22;20047;-90
2024/01/04 10:37:32;;;;;;;2.30;0.50;;;;;;;;;;6215300;22;20436;-92
2024/01/04 10:40:03;;;;;;;2.15;0.60;;;;;;;;;;6214428;22;20027;-93
2024/01/04 10:42:29;;;;;;;1.77;0.90;;;;;;;;;;6240867;22;20328;-92
2024/01/04 10:44:55;;;;;;;5.45;0.82;;;;;;;;;;6240698;22;20012;-91
2024/01/04 10:47:21;;;;;;;2.78;0.60;;;;;;;;;;6238191;22;20069;-92
2024/01/04 10:49:48;;;;;;;4.15;0.73;;;;;;;;;;6215161;22;20043;-92
2024/01/04 10:52:15;;;;;;;0.65;0.63;;;;;;;;;;6214315;22;20020;-92
2024/01/04 10:54:43;;;;;;;0.82;0.63;;;;;;;;;;6214744;22;20452;-92
2024/01/04 10:57:10;;;;;;;0.85;0.60;;;;;;;;;;6212699;22;20176;-92
2024/01/04 10:59:36;;;;;;;3.72;0.70;;;;;;;;;;6215118;22;20015;-93
2024/01/04 11:02:02;;;;;;;2.03;0.88;;;;;;;;;;6213395;22;20012;-93
2024/01/04 11:04:29;;;;;;;0.80;0.60;;;;;;;;;;6215670;22;20008;-92
2024/01/04 11:06:55;;;;;;;0.88;0.50;;;;;;;;;;6265253;22;20532;-92
2024/01/04 11:09:21;;;;;;;2.90;0.60;;;;;;;;;;6211690;22;20024;-92
2024/01/04 11:11:54;;;;;;;1.80;0.50;;;;;;;;;;6240453;22;20068;-93
2024/01/04 11:14:31;;;;;;;1.83;0.60;;;;;;;;;;6212668;22;20024;-93
2024/01/04 11:31:23;;;;;;;2.65;0.70;;;;;;;;;;5977676;23;20102;-91
2024/01/04 12:26:26;;;;;;;;;;;;;;;;;;;;;
2024/01/04 12:38:51;;;;;;;1.48;0.80;;;;;;;;;;6287624;22;20035;-83
2024/01/04 12:56:06;;;;;;;2.25;1.00;;;;;;;;;;6012734;23;20028;-84
2024/01/04 12:59:26;;;;;;;;;;;;;;;;;;;;;
